Aérodrome :
LOGIN :

S'inscrire | Disclaimer

   EN    FR    IT 

 










Légende :    VFR   VFR Marginal   IFR   IFR Intensif   IFR Très Intensif
Visi : 
Plafond : 
>= 8 km
>= 3000ft
5 à 8 km
1000 à 3000 ft
1500m à 5 km
500 à 1000 ft
800 à 1500m
200 à 500 ft
< 800m
< 200 ft
Symboles :   Orages  Brouillard  Fortes neiges  Fortes précipitations  Vent > 20 kt
SIGMETs :   Divers  Orages  Givrage  Turbulence  Onde Orograph.  Cendres Volcan.






- Altitude de l'aérodrome : 22 ft
- Code IATA : TUN


DTTA - Tunis Carthage

DERNIER METAR :
  • 151830Z 01003KT 330V080 9999 SCT026 SCT040 26/14 Q1015

METARs EXPIRÉS :
  • 151800Z 36004KT 340V050 9999 SCT026 SCT040 26/12 Q1015
  • 151730Z 01005KT 350V050 9999 SCT026TCU SCT040 27/12 Q1015
  • 151700Z 34009KT 9999 SCT020TCU 29/09 Q1015
  • 151630Z 32007KT 9999 BKN020TCU 28/11 Q1015
  • 151600Z 33008KT 300V010 9999 BKN020TCU 28/11 Q1015

TAF TAF DTTA
Valide du 15 à 18h jusqu'au 16 à 18h UTC


151700Z 1518/1618 34010KT 9999 SCT020TCU
TEMPO 1518/1521 4000 -TSRA FEW033CB
BECMG 1519/1521 26005KT 9999 FEW026
BECMG 1607/1609 31012KT



MET'MAP, la Météo Aéronautique d'un coup d'oeil ! - Copyright ORBIFLY Décembre 2007 - Disclaimer

ORBIFLY MET'MAP TEAM :

Programmation & Développement : Alexandra Zaïnal
Sur une idée originale de : Baudouin d'Aumeries
Assistance à la programmation : Marc-Olivier Méhu
Soutien technique & logistique : Manuel Goepfert

Contact : metmap@orbifly.com




SOURCES & CREDITS :

   NOAA